sensor_id;sensor_type;location;lat;lon;timestamp;P1;durP1;ratioP1;P2;durP2;ratioP2
54143;SDS011;40050;47.324;18.792;2023-08-30T00:01:58;4.07;;;2.05;;
54143;SDS011;40050;47.324;18.792;2023-08-30T00:03:59;3.61;;;2.34;;
54143;SDS011;40050;47.324;18.792;2023-08-30T00:06:03;3.43;;;2.24;;
54143;SDS011;40050;47.324;18.792;2023-08-30T00:08:01;3.07;;;2.63;;
54143;SDS011;40050;47.324;18.792;2023-08-30T00:10:02;5.59;;;2.54;;
54143;SDS011;40050;47.324;18.792;2023-08-30T00:12:03;2.52;;;2.24;;
54143;SDS011;40050;47.324;18.792;2023-08-30T00:14:07;2.70;;;2.44;;
54143;SDS011;40050;47.324;18.792;2023-08-30T00:16:05;3.69;;;2.83;;
54143;SDS011;40050;47.324;18.792;2023-08-30T00:18:06;5.30;;;2.92;;
54143;SDS011;40050;47.324;18.792;2023-08-30T00:20:07;6.74;;;2.53;;
54143;SDS011;40050;47.324;18.792;2023-08-30T00:22:08;4.93;;;3.11;;
54143;SDS011;40050;47.324;18.792;2023-08-30T00:24:09;4.74;;;3.21;;
54143;SDS011;40050;47.324;18.792;2023-08-30T00:26:10;3.93;;;2.82;;
54143;SDS011;40050;47.324;18.792;2023-08-30T00:28:11;6.51;;;3.11;;
54143;SDS011;40050;47.324;18.792;2023-08-30T00:30:12;6.77;;;2.91;;
54143;SDS011;40050;47.324;18.792;2023-08-30T00:32:12;6.76;;;3.30;;
54143;SDS011;40050;47.324;18.792;2023-08-30T00:34:13;8.53;;;3.49;;
54143;SDS011;40050;47.324;18.792;2023-08-30T00:36:14;4.17;;;3.10;;
54143;SDS011;40050;47.324;18.792;2023-08-30T00:38:26;3.64;;;3.10;;
54143;SDS011;40050;47.324;18.792;2023-08-30T00:40:28;5.40;;;3.20;;
54143;SDS011;40050;47.324;18.792;2023-08-30T00:42:27;4.34;;;3.39;;
54143;SDS011;40050;47.324;18.792;2023-08-30T00:44:28;6.98;;;3.68;;
54143;SDS011;40050;47.324;18.792;2023-08-30T00:46:29;6.47;;;3.78;;
54143;SDS011;40050;47.324;18.792;2023-08-30T00:48:31;6.46;;;3.87;;
54143;SDS011;40050;47.324;18.792;2023-08-30T00:50:32;6.44;;;3.87;;
54143;SDS011;40050;47.324;18.792;2023-08-30T00:52:34;6.44;;;4.35;;
54143;SDS011;40050;47.324;18.792;2023-08-30T00:54:35;8.91;;;4.35;;
54143;SDS011;40050;47.324;18.792;2023-08-30T00:56:36;7.13;;;4.83;;
54143;SDS011;40050;47.324;18.792;2023-08-30T00:58:38;5.65;;;4.74;;
54143;SDS011;40050;47.324;18.792;2023-08-30T01:00:40;7.83;;;4.93;;
54143;SDS011;40050;47.324;18.792;2023-08-30T01:02:41;7.57;;;5.12;;
54143;SDS011;40050;47.324;18.792;2023-08-30T01:04:42;5.65;;;4.55;;
54143;SDS011;40050;47.324;18.792;2023-08-30T01:06:43;7.59;;;5.13;;
54143;SDS011;40050;47.324;18.792;2023-08-30T01:08:45;7.58;;;5.13;;
54143;SDS011;40050;47.324;18.792;2023-08-30T01:13:06;7.24;;;5.32;;
54143;SDS011;40050;47.324;18.792;2023-08-30T01:15:18;7.05;;;5.03;;
54143;SDS011;40050;47.324;18.792;2023-08-30T01:17:14;9.69;;;5.41;;
54143;SDS011;40050;47.324;18.792;2023-08-30T01:19:26;8.82;;;5.61;;
54143;SDS011;40050;47.324;18.792;2023-08-30T01:21:23;9.34;;;5.80;;
54143;SDS011;40050;47.324;18.792;2023-08-30T01:23:42;10.23;;;5.90;;
54143;SDS011;40050;47.324;18.792;2023-08-30T01:26:07;7.61;;;6.20;;
54143;SDS011;40050;47.324;18.792;2023-08-30T01:27:50;11.66;;;6.68;;
54143;SDS011;40050;47.324;18.792;2023-08-30T01:29:52;10.97;;;7.26;;
54143;SDS011;40050;47.324;18.792;2023-08-30T01:31:54;11.23;;;7.65;;
54143;SDS011;40050;47.324;18.792;2023-08-30T01:33:56;12.32;;;8.33;;
54143;SDS011;40050;47.324;18.792;2023-08-30T01:35:58;12.49;;;8.33;;
54143;SDS011;40050;47.324;18.792;2023-08-30T01:37:59;12.69;;;8.63;;
54143;SDS011;40050;47.324;18.792;2023-08-30T01:40:01;14.37;;;9.11;;
54143;SDS011;40050;47.324;18.792;2023-08-30T01:42:01;13.77;;;8.83;;
54143;SDS011;40050;47.324;18.792;2023-08-30T01:44:05;12.67;;;8.91;;
54143;SDS011;40050;47.324;18.792;2023-08-30T01:46:06;13.54;;;9.01;;
54143;SDS011;40050;47.324;18.792;2023-08-30T01:48:08;13.62;;;9.10;;
54143;SDS011;40050;47.324;18.792;2023-08-30T01:50:09;11.89;;;8.82;;
54143;SDS011;40050;47.324;18.792;2023-08-30T01:52:10;17.19;;;9.61;;
54143;SDS011;40050;47.324;18.792;2023-08-30T01:54:12;13.87;;;9.70;;
54143;SDS011;40050;47.324;18.792;2023-08-30T01:56:13;14.09;;;10.01;;
54143;SDS011;40050;47.324;18.792;2023-08-30T01:58:14;13.18;;;9.81;;
54143;SDS011;40050;47.324;18.792;2023-08-30T02:00:15;15.99;;;10.28;;
54143;SDS011;40050;47.324;18.792;2023-08-30T02:02:16;15.18;;;9.79;;
54143;SDS011;40050;47.324;18.792;2023-08-30T02:04:17;13.92;;;9.21;;
54143;SDS011;40050;47.324;18.792;2023-08-30T02:06:42;13.52;;;9.58;;
54143;SDS011;40050;47.324;18.792;2023-08-30T02:08:57;14.55;;;9.67;;
54143;SDS011;40050;47.324;18.792;2023-08-30T02:10:40;13.60;;;9.29;;
54143;SDS011;40050;47.324;18.792;2023-08-30T02:12:52;13.82;;;9.30;;
54143;SDS011;40050;47.324;18.792;2023-08-30T02:14:53;12.66;;;9.49;;
54143;SDS011;40050;47.324;18.792;2023-08-30T02:16:54;14.55;;;9.70;;
54143;SDS011;40050;47.324;18.792;2023-08-30T02:18:56;14.31;;;9.41;;
54143;SDS011;40050;47.324;18.792;2023-08-30T02:20:57;14.88;;;9.78;;
54143;SDS011;40050;47.324;18.792;2023-08-30T02:22:58;13.34;;;9.78;;
54143;SDS011;40050;47.324;18.792;2023-08-30T02:24:59;14.01;;;9.96;;
54143;SDS011;40050;47.324;18.792;2023-08-30T02:27:00;16.24;;;10.06;;
54143;SDS011;40050;47.324;18.792;2023-08-30T02:29:01;15.93;;;9.49;;
54143;SDS011;40050;47.324;18.792;2023-08-30T02:31:02;15.67;;;9.59;;
54143;SDS011;40050;47.324;18.792;2023-08-30T02:33:03;14.23;;;9.39;;
54143;SDS011;40050;47.324;18.792;2023-08-30T02:35:04;13.89;;;9.78;;
54143;SDS011;40050;47.324;18.792;2023-08-30T02:37:04;14.78;;;9.88;;
54143;SDS011;40050;47.324;18.792;2023-08-30T02:39:05;12.67;;;9.40;;
54143;SDS011;40050;47.324;18.792;2023-08-30T02:41:06;16.32;;;9.50;;
54143;SDS011;40050;47.324;18.792;2023-08-30T02:43:07;17.45;;;9.88;;
54143;SDS011;40050;47.324;18.792;2023-08-30T02:45:08;16.37;;;9.20;;
54143;SDS011;40050;47.324;18.792;2023-08-30T02:47:09;15.54;;;9.29;;
54143;SDS011;40050;47.324;18.792;2023-08-30T02:49:10;14.50;;;9.20;;
54143;SDS011;40050;47.324;18.792;2023-08-30T02:51:10;14.35;;;9.20;;
54143;SDS011;40050;47.324;18.792;2023-08-30T02:53:11;15.14;;;9.30;;
54143;SDS011;40050;47.324;18.792;2023-08-30T02:55:12;13.81;;;8.91;;
54143;SDS011;40050;47.324;18.792;2023-08-30T02:57:13;16.81;;;9.10;;
54143;SDS011;40050;47.324;18.792;2023-08-30T02:59:15;14.08;;;9.30;;
54143;SDS011;40050;47.324;18.792;2023-08-30T03:01:15;14.64;;;9.11;;
54143;SDS011;40050;47.324;18.792;2023-08-30T03:03:16;14.34;;;9.59;;
54143;SDS011;40050;47.324;18.792;2023-08-30T03:05:17;13.09;;;9.39;;
54143;SDS011;40050;47.324;18.792;2023-08-30T03:07:18;14.01;;;9.11;;
54143;SDS011;40050;47.324;18.792;2023-08-30T03:09:19;14.01;;;9.01;;
54143;SDS011;40050;47.324;18.792;2023-08-30T03:11:20;13.17;;;8.81;;
54143;SDS011;40050;47.324;18.792;2023-08-30T03:13:21;14.58;;;9.20;;
54143;SDS011;40050;47.324;18.792;2023-08-30T03:15:22;16.55;;;9.49;;
54143;SDS011;40050;47.324;18.792;2023-08-30T03:17:23;14.46;;;9.40;;
54143;SDS011;40050;47.324;18.792;2023-08-30T03:19:24;14.19;;;9.21;;
54143;SDS011;40050;47.324;18.792;2023-08-30T03:21:31;14.59;;;8.71;;
54143;SDS011;40050;47.324;18.792;2023-08-30T03:23:32;14.64;;;9.48;;
54143;SDS011;40050;47.324;18.792;2023-08-30T03:25:33;15.31;;;9.39;;
54143;SDS011;40050;47.324;18.792;2023-08-30T03:27:34;16.18;;;9.00;;
54143;SDS011;40050;47.324;18.792;2023-08-30T03:29:35;13.55;;;8.72;;
54143;SDS011;40050;47.324;18.792;2023-08-30T03:31:49;13.96;;;8.90;;
54143;SDS011;40050;47.324;18.792;2023-08-30T03:33:50;14.73;;;9.38;;
54143;SDS011;40050;47.324;18.792;2023-08-30T03:35:51;13.36;;;8.52;;
54143;SDS011;40050;47.324;18.792;2023-08-30T03:37:52;14.71;;;9.11;;
54143;SDS011;40050;47.324;18.792;2023-08-30T03:39:53;15.11;;;8.93;;
54143;SDS011;40050;47.324;18.792;2023-08-30T03:41:53;14.59;;;9.03;;
54143;SDS011;40050;47.324;18.792;2023-08-30T03:43:54;14.12;;;8.92;;
54143;SDS011;40050;47.324;18.792;2023-08-30T03:45:55;13.87;;;8.93;;
54143;SDS011;40050;47.324;18.792;2023-08-30T03:47:56;14.23;;;9.12;;
54143;SDS011;40050;47.324;18.792;2023-08-30T03:49:57;14.78;;;9.13;;
54143;SDS011;40050;47.324;18.792;2023-08-30T03:51:58;12.64;;;8.83;;
54143;SDS011;40050;47.324;18.792;2023-08-30T03:53:59;14.41;;;8.83;;
54143;SDS011;40050;47.324;18.792;2023-08-30T03:56:00;14.43;;;9.03;;
54143;SDS011;40050;47.324;18.792;2023-08-30T03:58:01;12.40;;;8.84;;
54143;SDS011;40050;47.324;18.792;2023-08-30T04:00:02;12.77;;;9.14;;
54143;SDS011;40050;47.324;18.792;2023-08-30T04:02:03;13.82;;;8.84;;
54143;SDS011;40050;47.324;18.792;2023-08-30T04:04:04;14.17;;;8.94;;
54143;SDS011;40050;47.324;18.792;2023-08-30T04:06:04;14.79;;;9.13;;
54143;SDS011;40050;47.324;18.792;2023-08-30T04:08:07;14.91;;;9.33;;
54143;SDS011;40050;47.324;18.792;2023-08-30T04:10:07;13.66;;;8.55;;
54143;SDS011;40050;47.324;18.792;2023-08-30T04:12:08;12.87;;;9.04;;
54143;SDS011;40050;47.324;18.792;2023-08-30T04:14:09;16.10;;;9.34;;
54143;SDS011;40050;47.324;18.792;2023-08-30T04:16:10;15.14;;;9.83;;
54143;SDS011;40050;47.324;18.792;2023-08-30T04:18:11;13.44;;;8.95;;
54143;SDS011;40050;47.324;18.792;2023-08-30T04:20:12;12.57;;;9.06;;
54143;SDS011;40050;47.324;18.792;2023-08-30T04:22:13;16.92;;;10.22;;
54143;SDS011;40050;47.324;18.792;2023-08-30T04:24:14;14.68;;;9.83;;
54143;SDS011;40050;47.324;18.792;2023-08-30T04:26:15;14.66;;;9.63;;
54143;SDS011;40050;47.324;18.792;2023-08-30T04:28:16;16.31;;;10.10;;
54143;SDS011;40050;47.324;18.792;2023-08-30T04:30:17;13.75;;;10.69;;
54143;SDS011;40050;47.324;18.792;2023-08-30T04:32:18;12.66;;;9.33;;
54143;SDS011;40050;47.324;18.792;2023-08-30T04:34:19;16.47;;;10.00;;
54143;SDS011;40050;47.324;18.792;2023-08-30T04:36:23;14.00;;;9.71;;
54143;SDS011;40050;47.324;18.792;2023-08-30T04:38:24;15.29;;;10.67;;
54143;SDS011;40050;47.324;18.792;2023-08-30T04:40:25;14.21;;;10.18;;
54143;SDS011;40050;47.324;18.792;2023-08-30T04:42:26;15.20;;;10.28;;
54143;SDS011;40050;47.324;18.792;2023-08-30T04:44:27;14.12;;;10.38;;
54143;SDS011;40050;47.324;18.792;2023-08-30T04:46:28;16.74;;;10.58;;
54143;SDS011;40050;47.324;18.792;2023-08-30T04:48:29;15.05;;;10.87;;
54143;SDS011;40050;47.324;18.792;2023-08-30T04:50:30;14.80;;;10.39;;
54143;SDS011;40050;47.324;18.792;2023-08-30T04:52:31;14.95;;;10.97;;
54143;SDS011;40050;47.324;18.792;2023-08-30T04:54:32;14.12;;;9.89;;
54143;SDS011;40050;47.324;18.792;2023-08-30T04:56:40;16.26;;;10.48;;
54143;SDS011;40050;47.324;18.792;2023-08-30T04:58:41;14.68;;;10.48;;
54143;SDS011;40050;47.324;18.792;2023-08-30T05:00:43;15.95;;;10.78;;
54143;SDS011;40050;47.324;18.792;2023-08-30T05:02:44;13.38;;;10.39;;
54143;SDS011;40050;47.324;18.792;2023-08-30T05:04:45;14.03;;;9.82;;
54143;SDS011;40050;47.324;18.792;2023-08-30T05:06:46;14.21;;;10.21;;
54143;SDS011;40050;47.324;18.792;2023-08-30T05:08:46;14.81;;;9.91;;
54143;SDS011;40050;47.324;18.792;2023-08-30T05:10:48;14.69;;;10.00;;
54143;SDS011;40050;47.324;18.792;2023-08-30T05:12:49;14.63;;;10.30;;
54143;SDS011;40050;47.324;18.792;2023-08-30T05:14:50;13.59;;;9.99;;
54143;SDS011;40050;47.324;18.792;2023-08-30T05:16:51;16.85;;;9.89;;
54143;SDS011;40050;47.324;18.792;2023-08-30T05:18:52;14.88;;;9.69;;
54143;SDS011;40050;47.324;18.792;2023-08-30T05:20:56;14.20;;;9.69;;
54143;SDS011;40050;47.324;18.792;2023-08-30T05:22:54;14.37;;;9.69;;
54143;SDS011;40050;47.324;18.792;2023-08-30T05:24:55;16.02;;;10.29;;
54143;SDS011;40050;47.324;18.792;2023-08-30T05:26:55;14.09;;;9.33;;
54143;SDS011;40050;47.324;18.792;2023-08-30T05:28:56;13.43;;;9.41;;
54143;SDS011;40050;47.324;18.792;2023-08-30T05:31:20;15.31;;;9.61;;
54143;SDS011;40050;47.324;18.792;2023-08-30T05:33:15;13.87;;;9.90;;
54143;SDS011;40050;47.324;18.792;2023-08-30T05:35:16;12.46;;;9.22;;
54143;SDS011;40050;47.324;18.792;2023-08-30T05:37:17;14.06;;;9.71;;
54143;SDS011;40050;47.324;18.792;2023-08-30T05:39:18;13.95;;;9.24;;
54143;SDS011;40050;47.324;18.792;2023-08-30T05:41:19;12.43;;;8.56;;
54143;SDS011;40050;47.324;18.792;2023-08-30T05:43:20;14.03;;;9.36;;
54143;SDS011;40050;47.324;18.792;2023-08-30T05:45:21;14.11;;;9.26;;
54143;SDS011;40050;47.324;18.792;2023-08-30T05:47:25;14.51;;;9.56;;
54143;SDS011;40050;47.324;18.792;2023-08-30T05:49:23;13.93;;;9.74;;
54143;SDS011;40050;47.324;18.792;2023-08-30T05:51:24;13.77;;;8.77;;
54143;SDS011;40050;47.324;18.792;2023-08-30T05:53:28;13.30;;;8.57;;
54143;SDS011;40050;47.324;18.792;2023-08-30T05:55:26;13.97;;;8.88;;
54143;SDS011;40050;47.324;18.792;2023-08-30T05:57:27;14.47;;;8.96;;
54143;SDS011;40050;47.324;18.792;2023-08-30T05:59:28;13.59;;;8.58;;
54143;SDS011;40050;47.324;18.792;2023-08-30T06:01:29;13.40;;;9.16;;
54143;SDS011;40050;47.324;18.792;2023-08-30T06:03:30;14.92;;;9.35;;
54143;SDS011;40050;47.324;18.792;2023-08-30T06:05:31;13.29;;;9.08;;
54143;SDS011;40050;47.324;18.792;2023-08-30T06:07:32;13.27;;;8.98;;
54143;SDS011;40050;47.324;18.792;2023-08-30T06:09:33;13.17;;;9.66;;
54143;SDS011;40050;47.324;18.792;2023-08-30T06:11:34;15.08;;;9.86;;
54143;SDS011;40050;47.324;18.792;2023-08-30T06:13:34;16.23;;;10.93;;
54143;SDS011;40050;47.324;18.792;2023-08-30T06:15:36;15.66;;;10.26;;
54143;SDS011;40050;47.324;18.792;2023-08-30T06:17:37;14.58;;;10.36;;
54143;SDS011;40050;47.324;18.792;2023-08-30T06:19:38;17.56;;;11.53;;
54143;SDS011;40050;47.324;18.792;2023-08-30T06:21:39;14.64;;;11.03;;
54143;SDS011;40050;47.324;18.792;2023-08-30T06:23:40;20.53;;;11.52;;
54143;SDS011;40050;47.324;18.792;2023-08-30T06:25:41;14.58;;;11.33;;
54143;SDS011;40050;47.324;18.792;2023-08-30T06:27:43;16.03;;;10.84;;
54143;SDS011;40050;47.324;18.792;2023-08-30T06:29:43;14.33;;;10.36;;
54143;SDS011;40050;47.324;18.792;2023-08-30T06:31:44;14.11;;;10.35;;
54143;SDS011;40050;47.324;18.792;2023-08-30T06:33:44;15.92;;;11.55;;
54143;SDS011;40050;47.324;18.792;2023-08-30T06:35:47;14.45;;;10.17;;
54143;SDS011;40050;47.324;18.792;2023-08-30T06:37:46;16.18;;;10.17;;
54143;SDS011;40050;47.324;18.792;2023-08-30T06:39:50;14.06;;;9.97;;
54143;SDS011;40050;47.324;18.792;2023-08-30T06:41:51;14.57;;;10.18;;
54143;SDS011;40050;47.324;18.792;2023-08-30T06:43:52;14.65;;;10.08;;
54143;SDS011;40050;47.324;18.792;2023-08-30T06:45:53;14.48;;;10.18;;
54143;SDS011;40050;47.324;18.792;2023-08-30T06:47:58;15.97;;;10.29;;
54143;SDS011;40050;47.324;18.792;2023-08-30T06:49:56;14.33;;;9.90;;
54143;SDS011;40050;47.324;18.792;2023-08-30T06:51:57;13.94;;;9.89;;
54143;SDS011;40050;47.324;18.792;2023-08-30T06:53:58;15.23;;;9.40;;
54143;SDS011;40050;47.324;18.792;2023-08-30T06:56:00;12.60;;;9.80;;
54143;SDS011;40050;47.324;18.792;2023-08-30T06:58:01;12.66;;;9.03;;
54143;SDS011;40050;47.324;18.792;2023-08-30T07:00:01;14.25;;;9.53;;
54143;SDS011;40050;47.324;18.792;2023-08-30T07:02:03;14.14;;;8.83;;
54143;SDS011;40050;47.324;18.792;2023-08-30T07:04:03;12.82;;;9.32;;
54143;SDS011;40050;47.324;18.792;2023-08-30T07:06:05;14.05;;;9.33;;
54143;SDS011;40050;47.324;18.792;2023-08-30T07:08:06;14.92;;;8.75;;
54143;SDS011;40050;47.324;18.792;2023-08-30T07:15:43;13.67;;;9.25;;
54143;SDS011;40050;47.324;18.792;2023-08-30T07:17:38;11.86;;;9.13;;
54143;SDS011;40050;47.324;18.792;2023-08-30T07:19:39;14.03;;;9.34;;
54143;SDS011;40050;47.324;18.792;2023-08-30T07:21:39;12.37;;;8.46;;
54143;SDS011;40050;47.324;18.792;2023-08-30T07:23:40;11.31;;;9.43;;
54143;SDS011;40050;47.324;18.792;2023-08-30T07:25:41;11.34;;;9.34;;
54143;SDS011;40050;47.324;18.792;2023-08-30T07:27:42;11.89;;;9.14;;
54143;SDS011;40050;47.324;18.792;2023-08-30T07:29:43;13.21;;;8.56;;
54143;SDS011;40050;47.324;18.792;2023-08-30T07:31:44;11.71;;;9.05;;
54143;SDS011;40050;47.324;18.792;2023-08-30T07:33:45;13.50;;;8.66;;
54143;SDS011;40050;47.324;18.792;2023-08-30T07:35:46;12.28;;;9.25;;
54143;SDS011;40050;47.324;18.792;2023-08-30T07:37:51;13.03;;;8.95;;
54143;SDS011;40050;47.324;18.792;2023-08-30T07:39:52;10.37;;;8.86;;
54143;SDS011;40050;47.324;18.792;2023-08-30T07:41:53;11.55;;;8.18;;
54143;SDS011;40050;47.324;18.792;2023-08-30T07:43:54;12.73;;;8.67;;
54143;SDS011;40050;47.324;18.792;2023-08-30T07:45:54;11.32;;;8.37;;
54143;SDS011;40050;47.324;18.792;2023-08-30T07:47:55;12.65;;;8.67;;
54143;SDS011;40050;47.324;18.792;2023-08-30T07:49:56;13.58;;;8.77;;
54143;SDS011;40050;47.324;18.792;2023-08-30T07:51:57;11.03;;;8.67;;
54143;SDS011;40050;47.324;18.792;2023-08-30T07:53:58;11.80;;;8.77;;
54143;SDS011;40050;47.324;18.792;2023-08-30T07:55:59;11.01;;;8.29;;
54143;SDS011;40050;47.324;18.792;2023-08-30T07:58:00;11.19;;;8.09;;
54143;SDS011;40050;47.324;18.792;2023-08-30T08:00:04;10.96;;;8.28;;
54143;SDS011;40050;47.324;18.792;2023-08-30T08:02:05;12.18;;;8.28;;
54143;SDS011;40050;47.324;18.792;2023-08-30T08:04:05;9.78;;;7.89;;
54143;SDS011;40050;47.324;18.792;2023-08-30T08:06:07;10.70;;;7.89;;
54143;SDS011;40050;47.324;18.792;2023-08-30T08:08:10;10.90;;;8.18;;
54143;SDS011;40050;47.324;18.792;2023-08-30T08:10:11;10.72;;;8.09;;
54143;SDS011;40050;47.324;18.792;2023-08-30T08:12:12;10.51;;;7.81;;
54143;SDS011;40050;47.324;18.792;2023-08-30T08:14:13;9.55;;;7.41;;
54143;SDS011;40050;47.324;18.792;2023-08-30T08:16:14;10.66;;;7.70;;
54143;SDS011;40050;47.324;18.792;2023-08-30T08:18:15;9.34;;;7.70;;
54143;SDS011;40050;47.324;18.792;2023-08-30T08:20:16;12.60;;;7.01;;
54143;SDS011;40050;47.324;18.792;2023-08-30T08:22:17;9.22;;;7.00;;
54143;SDS011;40050;47.324;18.792;2023-08-30T08:24:18;9.51;;;7.30;;
54143;SDS011;40050;47.324;18.792;2023-08-30T08:26:19;10.28;;;7.21;;
54143;SDS011;40050;47.324;18.792;2023-08-30T08:28:20;12.44;;;7.60;;
54143;SDS011;40050;47.324;18.792;2023-08-30T08:30:21;10.22;;;7.11;;
54143;SDS011;40050;47.324;18.792;2023-08-30T08:32:22;9.65;;;7.51;;
54143;SDS011;40050;47.324;18.792;2023-08-30T08:34:35;12.29;;;7.61;;
54143;SDS011;40050;47.324;18.792;2023-08-30T08:36:36;9.86;;;7.12;;
54143;SDS011;40050;47.324;18.792;2023-08-30T08:38:37;8.37;;;6.62;;
54143;SDS011;40050;47.324;18.792;2023-08-30T08:40:47;10.06;;;7.22;;
54143;SDS011;40050;47.324;18.792;2023-08-30T08:42:39;7.99;;;6.43;;
54143;SDS011;40050;47.324;18.792;2023-08-30T08:44:40;9.22;;;6.33;;
54143;SDS011;40050;47.324;18.792;2023-08-30T08:46:44;9.39;;;6.43;;
54143;SDS011;40050;47.324;18.792;2023-08-30T08:49:14;7.16;;;5.74;;
54143;SDS011;40050;47.324;18.792;2023-08-30T08:51:11;7.71;;;4.94;;
54143;SDS011;40050;47.324;18.792;2023-08-30T08:56:32;6.59;;;5.64;;
54143;SDS011;40050;47.324;18.792;2023-08-30T08:58:20;8.89;;;5.35;;
54143;SDS011;40050;47.324;18.792;2023-08-30T09:00:20;7.72;;;5.44;;
54143;SDS011;40050;47.324;18.792;2023-08-30T09:02:21;7.36;;;5.34;;
54143;SDS011;40050;47.324;18.792;2023-08-30T09:13:06;7.83;;;5.54;;
54143;SDS011;40050;47.324;18.792;2023-08-30T09:15:07;9.16;;;5.64;;
54143;SDS011;40050;47.324;18.792;2023-08-30T09:17:08;10.32;;;5.94;;
54143;SDS011;40050;47.324;18.792;2023-08-30T09:19:09;10.43;;;5.45;;
54143;SDS011;40050;47.324;18.792;2023-08-30T09:21:13;8.72;;;5.95;;
54143;SDS011;40050;47.324;18.792;2023-08-30T09:23:32;6.63;;;5.15;;
54143;SDS011;40050;47.324;18.792;2023-08-30T09:26:07;8.17;;;5.06;;
54143;SDS011;40050;47.324;18.792;2023-08-30T09:38:20;7.31;;;5.06;;
54143;SDS011;40050;47.324;18.792;2023-08-30T09:40:31;7.59;;;4.66;;
54143;SDS011;40050;47.324;18.792;2023-08-30T09:42:32;8.57;;;5.06;;
54143;SDS011;40050;47.324;18.792;2023-08-30T09:44:46;10.07;;;5.55;;
54143;SDS011;40050;47.324;18.792;2023-08-30T09:46:54;7.40;;;5.45;;
54143;SDS011;40050;47.324;18.792;2023-08-30T09:52:58;9.00;;;5.45;;
54143;SDS011;40050;47.324;18.792;2023-08-30T09:55:00;7.68;;;5.15;;
54143;SDS011;40050;47.324;18.792;2023-08-30T09:57:33;7.67;;;5.35;;
54143;SDS011;40050;47.324;18.792;2023-08-30T09:59:35;7.20;;;5.35;;
54143;SDS011;40050;47.324;18.792;2023-08-30T10:01:35;8.08;;;5.35;;
54143;SDS011;40050;47.324;18.792;2023-08-30T10:03:36;7.88;;;5.45;;
54143;SDS011;40050;47.324;18.792;2023-08-30T10:05:39;8.37;;;5.75;;
54143;SDS011;40050;47.324;18.792;2023-08-30T10:09:41;9.14;;;5.65;;
54143;SDS011;40050;47.324;18.792;2023-08-30T10:11:42;7.26;;;4.96;;
54143;SDS011;40050;47.324;18.792;2023-08-30T10:13:44;8.30;;;5.26;;
54143;SDS011;40050;47.324;18.792;2023-08-30T10:15:45;6.68;;;5.16;;
54143;SDS011;40050;47.324;18.792;2023-08-30T10:17:49;6.28;;;4.86;;
54143;SDS011;40050;47.324;18.792;2023-08-30T10:22:03;7.74;;;4.77;;
54143;SDS011;40050;47.324;18.792;2023-08-30T10:24:03;6.41;;;4.47;;
54143;SDS011;40050;47.324;18.792;2023-08-30T10:26:05;6.78;;;4.57;;
54143;SDS011;40050;47.324;18.792;2023-08-30T10:28:07;6.21;;;5.16;;
54143;SDS011;40050;47.324;18.792;2023-08-30T10:30:10;6.80;;;4.67;;
54143;SDS011;40050;47.324;18.792;2023-08-30T10:32:11;8.04;;;4.57;;
54143;SDS011;40050;47.324;18.792;2023-08-30T10:34:21;7.00;;;4.37;;
54143;SDS011;40050;47.324;18.792;2023-08-30T10:36:23;5.95;;;4.57;;
54143;SDS011;40050;47.324;18.792;2023-08-30T10:38:27;6.43;;;4.07;;
54143;SDS011;40050;47.324;18.792;2023-08-30T10:40:31;5.10;;;4.28;;
54143;SDS011;40050;47.324;18.792;2023-08-30T10:42:38;4.81;;;3.88;;
54143;SDS011;40050;47.324;18.792;2023-08-30T10:44:50;8.19;;;4.08;;
54143;SDS011;40050;47.324;18.792;2023-08-30T10:46:51;5.01;;;3.98;;
54143;SDS011;40050;47.324;18.792;2023-08-30T10:48:47;5.30;;;3.68;;
54143;SDS011;40050;47.324;18.792;2023-08-30T10:50:48;5.41;;;3.68;;
54143;SDS011;40050;47.324;18.792;2023-08-30T10:52:55;5.52;;;3.58;;
54143;SDS011;40050;47.324;18.792;2023-08-30T10:54:50;5.04;;;3.39;;
54143;SDS011;40050;47.324;18.792;2023-08-30T10:56:58;3.58;;;3.19;;
54143;SDS011;40050;47.324;18.792;2023-08-30T10:59:15;4.06;;;3.29;;
54143;SDS011;40050;47.324;18.792;2023-08-30T11:01:11;4.45;;;3.39;;
54143;SDS011;40050;47.324;18.792;2023-08-30T11:03:15;4.55;;;3.09;;
54143;SDS011;40050;47.324;18.792;2023-08-30T11:05:16;4.28;;;2.99;;
54143;SDS011;40050;47.324;18.792;2023-08-30T11:07:17;3.88;;;2.89;;
54143;SDS011;40050;47.324;18.792;2023-08-30T11:09:20;4.75;;;2.79;;
54143;SDS011;40050;47.324;18.792;2023-08-30T11:11:19;3.88;;;2.59;;
54143;SDS011;40050;47.324;18.792;2023-08-30T11:13:21;3.49;;;2.49;;
54143;SDS011;40050;47.324;18.792;2023-08-30T11:15:32;4.96;;;2.49;;
54143;SDS011;40050;47.324;18.792;2023-08-30T11:17:29;4.08;;;2.49;;
54143;SDS011;40050;47.324;18.792;2023-08-30T11:19:31;3.89;;;2.39;;
54143;SDS011;40050;47.324;18.792;2023-08-30T11:23:33;5.64;;;2.79;;
54143;SDS011;40050;47.324;18.792;2023-08-30T11:25:34;4.37;;;2.49;;
54143;SDS011;40050;47.324;18.792;2023-08-30T11:27:35;5.05;;;2.99;;
54143;SDS011;40050;47.324;18.792;2023-08-30T11:29:39;5.83;;;3.09;;
54143;SDS011;40050;47.324;18.792;2023-08-30T11:31:38;4.28;;;2.69;;
54143;SDS011;40050;47.324;18.792;2023-08-30T11:33:39;4.86;;;2.69;;
54143;SDS011;40050;47.324;18.792;2023-08-30T11:35:40;3.41;;;2.59;;
54143;SDS011;40050;47.324;18.792;2023-08-30T11:37:41;3.99;;;2.39;;
54143;SDS011;40050;47.324;18.792;2023-08-30T11:39:42;4.47;;;2.49;;
54143;SDS011;40050;47.324;18.792;2023-08-30T11:41:43;5.54;;;2.39;;
54143;SDS011;40050;47.324;18.792;2023-08-30T11:43:49;5.65;;;2.49;;
54143;SDS011;40050;47.324;18.792;2023-08-30T11:45:47;7.22;;;2.69;;
54143;SDS011;40050;47.324;18.792;2023-08-30T11:47:54;4.19;;;2.49;;
54143;SDS011;40050;47.324;18.792;2023-08-30T11:49:55;4.29;;;2.49;;
54143;SDS011;40050;47.324;18.792;2023-08-30T11:51:56;4.48;;;2.39;;
54143;SDS011;40050;47.324;18.792;2023-08-30T11:53:57;5.16;;;2.59;;
54143;SDS011;40050;47.324;18.792;2023-08-30T11:55:58;4.88;;;2.79;;
54143;SDS011;40050;47.324;18.792;2023-08-30T11:57:59;3.22;;;2.39;;
54143;SDS011;40050;47.324;18.792;2023-08-30T12:00:33;4.30;;;2.79;;
54143;SDS011;40050;47.324;18.792;2023-08-30T12:02:01;4.98;;;2.39;;
54143;SDS011;40050;47.324;18.792;2023-08-30T12:04:09;4.88;;;2.69;;
54143;SDS011;40050;47.324;18.792;2023-08-30T12:06:08;5.67;;;2.59;;
54143;SDS011;40050;47.324;18.792;2023-08-30T12:08:04;4.69;;;2.79;;
54143;SDS011;40050;47.324;18.792;2023-08-30T12:10:09;3.43;;;2.29;;
54143;SDS011;40050;47.324;18.792;2023-08-30T12:12:09;3.33;;;2.49;;
54143;SDS011;40050;47.324;18.792;2023-08-30T12:14:10;4.11;;;2.69;;
54143;SDS011;40050;47.324;18.792;2023-08-30T12:16:14;3.13;;;2.49;;
54143;SDS011;40050;47.324;18.792;2023-08-30T12:18:12;3.72;;;2.49;;
54143;SDS011;40050;47.324;18.792;2023-08-30T12:20:17;3.62;;;2.59;;
54143;SDS011;40050;47.324;18.792;2023-08-30T12:22:14;4.21;;;2.89;;
54143;SDS011;40050;47.324;18.792;2023-08-30T12:24:15;2.94;;;2.40;;
54143;SDS011;40050;47.324;18.792;2023-08-30T12:26:31;5.29;;;2.79;;
54143;SDS011;40050;47.324;18.792;2023-08-30T12:28:28;4.30;;;2.79;;
54143;SDS011;40050;47.324;18.792;2023-08-30T12:30:29;4.98;;;3.39;;
54143;SDS011;40050;47.324;18.792;2023-08-30T12:32:30;3.82;;;2.79;;
54143;SDS011;40050;47.324;18.792;2023-08-30T12:34:31;4.80;;;3.09;;
54143;SDS011;40050;47.324;18.792;2023-08-30T12:36:31;4.70;;;2.99;;
54143;SDS011;40050;47.324;18.792;2023-08-30T12:38:32;5.18;;;3.29;;